sensor_id;sensor_type;location;lat;lon;timestamp;temperature;humidity
16732;DHT22;8484;50.904;9.192;2023-05-10T00:01:27;13.80;99.90
16732;DHT22;8484;50.904;9.192;2023-05-10T00:03:54;13.90;99.90
16732;DHT22;8484;50.904;9.192;2023-05-10T00:06:21;13.90;99.90
16732;DHT22;8484;50.904;9.192;2023-05-10T00:08:48;14.00;99.90
16732;DHT22;8484;50.904;9.192;2023-05-10T00:11:16;14.00;99.90
16732;DHT22;8484;50.904;9.192;2023-05-10T00:13:43;14.00;99.90
16732;DHT22;8484;50.904;9.192;2023-05-10T00:16:10;14.00;99.90
16732;DHT22;8484;50.904;9.192;2023-05-10T00:18:38;14.00;99.90
16732;DHT22;8484;50.904;9.192;2023-05-10T00:21:05;14.10;99.90
16732;DHT22;8484;50.904;9.192;2023-05-10T00:23:32;14.00;99.90
16732;DHT22;8484;50.904;9.192;2023-05-10T00:25:59;14.00;99.90
16732;DHT22;8484;50.904;9.192;2023-05-10T00:28:28;14.10;99.90
16732;DHT22;8484;50.904;9.192;2023-05-10T00:30:55;14.10;99.90
16732;DHT22;8484;50.904;9.192;2023-05-10T00:33:22;14.10;99.90
16732;DHT22;8484;50.904;9.192;2023-05-10T00:35:49;14.10;99.90
16732;DHT22;8484;50.904;9.192;2023-05-10T00:38:16;14.00;99.90
16732;DHT22;8484;50.904;9.192;2023-05-10T00:40:43;14.00;99.90
16732;DHT22;8484;50.904;9.192;2023-05-10T00:43:09;13.90;99.90
16732;DHT22;8484;50.904;9.192;2023-05-10T00:45:40;13.90;99.90
16732;DHT22;8484;50.904;9.192;2023-05-10T00:48:07;13.90;99.90
16732;DHT22;8484;50.904;9.192;2023-05-10T00:50:35;13.90;99.90
16732;DHT22;8484;50.904;9.192;2023-05-10T00:53:02;13.80;99.90
16732;DHT22;8484;50.904;9.192;2023-05-10T00:55:30;13.80;99.90
16732;DHT22;8484;50.904;9.192;2023-05-10T00:57:57;13.80;99.90
16732;DHT22;8484;50.904;9.192;2023-05-10T01:00:24;13.80;99.90
16732;DHT22;8484;50.904;9.192;2023-05-10T01:02:53;13.70;99.90
16732;DHT22;8484;50.904;9.192;2023-05-10T01:05:20;13.60;99.90
16732;DHT22;8484;50.904;9.192;2023-05-10T01:07:47;13.50;99.90
16732;DHT22;8484;50.904;9.192;2023-05-10T01:10:14;13.50;99.90
16732;DHT22;8484;50.904;9.192;2023-05-10T01:12:45;13.50;99.90
16732;DHT22;8484;50.904;9.192;2023-05-10T01:15:14;13.40;99.90
16732;DHT22;8484;50.904;9.192;2023-05-10T01:17:43;13.50;99.90
16732;DHT22;8484;50.904;9.192;2023-05-10T01:20:12;13.50;99.90
16732;DHT22;8484;50.904;9.192;2023-05-10T01:22:55;13.40;99.90
16732;DHT22;8484;50.904;9.192;2023-05-10T01:25:40;13.40;99.90
16732;DHT22;8484;50.904;9.192;2023-05-10T01:28:31;13.40;99.90
16732;DHT22;8484;50.904;9.192;2023-05-10T01:31:22;13.30;99.90
16732;DHT22;8484;50.904;9.192;2023-05-10T01:33:59;13.40;99.90
16732;DHT22;8484;50.904;9.192;2023-05-10T01:36:31;13.40;99.90
16732;DHT22;8484;50.904;9.192;2023-05-10T01:39:02;13.30;99.90
16732;DHT22;8484;50.904;9.192;2023-05-10T01:41:39;13.40;99.90
16732;DHT22;8484;50.904;9.192;2023-05-10T01:44:11;13.40;99.90
16732;DHT22;8484;50.904;9.192;2023-05-10T01:46:40;13.60;99.90
16732;DHT22;8484;50.904;9.192;2023-05-10T01:49:17;13.60;99.90
16732;DHT22;8484;50.904;9.192;2023-05-10T01:51:48;13.50;99.90
16732;DHT22;8484;50.904;9.192;2023-05-10T01:54:19;13.50;99.90
16732;DHT22;8484;50.904;9.192;2023-05-10T01:56:49;13.50;99.90
16732;DHT22;8484;50.904;9.192;2023-05-10T01:59:18;13.30;99.90
16732;DHT22;8484;50.904;9.192;2023-05-10T02:01:46;13.10;99.90
16732;DHT22;8484;50.904;9.192;2023-05-10T02:04:17;13.10;99.90
16732;DHT22;8484;50.904;9.192;2023-05-10T02:06:45;13.10;99.90
16732;DHT22;8484;50.904;9.192;2023-05-10T02:09:14;13.10;99.90
16732;DHT22;8484;50.904;9.192;2023-05-10T02:11:43;13.10;99.90
16732;DHT22;8484;50.904;9.192;2023-05-10T02:14:11;13.10;99.90
16732;DHT22;8484;50.904;9.192;2023-05-10T02:16:39;13.00;99.90
16732;DHT22;8484;50.904;9.192;2023-05-10T02:19:07;12.90;99.90
16732;DHT22;8484;50.904;9.192;2023-05-10T02:21:38;12.80;99.90
16732;DHT22;8484;50.904;9.192;2023-05-10T02:24:06;12.90;99.90
16732;DHT22;8484;50.904;9.192;2023-05-10T02:26:35;12.80;99.90
16732;DHT22;8484;50.904;9.192;2023-05-10T02:29:03;12.80;99.90
16732;DHT22;8484;50.904;9.192;2023-05-10T02:31:30;12.80;99.90
16732;DHT22;8484;50.904;9.192;2023-05-10T02:33:59;12.80;99.90
16732;DHT22;8484;50.904;9.192;2023-05-10T02:36:27;12.70;99.90
16732;DHT22;8484;50.904;9.192;2023-05-10T02:38:57;12.80;99.90
16732;DHT22;8484;50.904;9.192;2023-05-10T02:41:27;12.80;99.90
16732;DHT22;8484;50.904;9.192;2023-05-10T02:44:01;12.70;99.90
16732;DHT22;8484;50.904;9.192;2023-05-10T02:46:32;12.60;99.90
16732;DHT22;8484;50.904;9.192;2023-05-10T02:48:59;12.70;99.90
16732;DHT22;8484;50.904;9.192;2023-05-10T02:51:30;12.70;99.90
16732;DHT22;8484;50.904;9.192;2023-05-10T02:54:04;12.60;99.90
16732;DHT22;8484;50.904;9.192;2023-05-10T02:56:36;12.50;99.90
16732;DHT22;8484;50.904;9.192;2023-05-10T02:59:06;12.50;99.90
16732;DHT22;8484;50.904;9.192;2023-05-10T03:01:37;12.40;99.90
16732;DHT22;8484;50.904;9.192;2023-05-10T03:04:04;12.30;99.90
16732;DHT22;8484;50.904;9.192;2023-05-10T03:06:35;12.20;99.90
16732;DHT22;8484;50.904;9.192;2023-05-10T03:09:07;12.20;99.90
16732;DHT22;8484;50.904;9.192;2023-05-10T03:11:43;12.20;99.90
16732;DHT22;8484;50.904;9.192;2023-05-10T03:14:21;12.10;99.90
16732;DHT22;8484;50.904;9.192;2023-05-10T03:16:56;12.20;99.90
16732;DHT22;8484;50.904;9.192;2023-05-10T03:19:29;12.30;99.90
16732;DHT22;8484;50.904;9.192;2023-05-10T03:22:10;12.20;99.90
16732;DHT22;8484;50.904;9.192;2023-05-10T03:24:39;12.20;99.90
16732;DHT22;8484;50.904;9.192;2023-05-10T03:27:14;12.20;99.90
16732;DHT22;8484;50.904;9.192;2023-05-10T03:29:42;12.20;99.90
16732;DHT22;8484;50.904;9.192;2023-05-10T03:32:12;12.20;99.90
16732;DHT22;8484;50.904;9.192;2023-05-10T03:34:41;12.20;99.90
16732;DHT22;8484;50.904;9.192;2023-05-10T03:37:09;12.20;99.90
16732;DHT22;8484;50.904;9.192;2023-05-10T03:39:35;12.10;99.90
16732;DHT22;8484;50.904;9.192;2023-05-10T03:42:04;12.10;99.90
16732;DHT22;8484;50.904;9.192;2023-05-10T03:44:31;12.10;99.90
16732;DHT22;8484;50.904;9.192;2023-05-10T03:46:59;12.10;99.90
16732;DHT22;8484;50.904;9.192;2023-05-10T03:49:30;12.10;99.90
16732;DHT22;8484;50.904;9.192;2023-05-10T03:51:57;12.10;99.90
16732;DHT22;8484;50.904;9.192;2023-05-10T03:54:25;12.10;99.90
16732;DHT22;8484;50.904;9.192;2023-05-10T03:56:53;12.10;99.90
16732;DHT22;8484;50.904;9.192;2023-05-10T03:59:22;12.20;99.90
16732;DHT22;8484;50.904;9.192;2023-05-10T04:01:48;12.20;99.90
16732;DHT22;8484;50.904;9.192;2023-05-10T04:04:15;12.20;99.90
16732;DHT22;8484;50.904;9.192;2023-05-10T04:06:45;12.20;99.90
16732;DHT22;8484;50.904;9.192;2023-05-10T04:09:11;12.20;99.90
16732;DHT22;8484;50.904;9.192;2023-05-10T04:11:38;12.10;99.90
16732;DHT22;8484;50.904;9.192;2023-05-10T04:14:05;12.10;99.90
16732;DHT22;8484;50.904;9.192;2023-05-10T04:16:33;12.10;99.90
16732;DHT22;8484;50.904;9.192;2023-05-10T04:19:00;12.20;99.90
16732;DHT22;8484;50.904;9.192;2023-05-10T04:21:28;12.10;99.90
16732;DHT22;8484;50.904;9.192;2023-05-10T04:23:55;12.10;99.90
16732;DHT22;8484;50.904;9.192;2023-05-10T04:26:22;12.10;99.90
16732;DHT22;8484;50.904;9.192;2023-05-10T04:28:50;12.10;99.90
16732;DHT22;8484;50.904;9.192;2023-05-10T04:31:17;12.10;99.90
16732;DHT22;8484;50.904;9.192;2023-05-10T04:33:45;12.10;99.90
16732;DHT22;8484;50.904;9.192;2023-05-10T04:36:12;12.10;99.90
16732;DHT22;8484;50.904;9.192;2023-05-10T04:38:38;12.10;99.90
16732;DHT22;8484;50.904;9.192;2023-05-10T04:41:06;12.10;99.90
16732;DHT22;8484;50.904;9.192;2023-05-10T04:43:33;12.10;99.90
16732;DHT22;8484;50.904;9.192;2023-05-10T04:46:00;12.00;99.90
16732;DHT22;8484;50.904;9.192;2023-05-10T04:48:27;12.20;99.90
16732;DHT22;8484;50.904;9.192;2023-05-10T04:50:55;12.20;99.90
16732;DHT22;8484;50.904;9.192;2023-05-10T04:53:21;12.30;99.90
16732;DHT22;8484;50.904;9.192;2023-05-10T04:55:48;12.30;99.90
16732;DHT22;8484;50.904;9.192;2023-05-10T04:58:15;12.30;99.90
16732;DHT22;8484;50.904;9.192;2023-05-10T05:00:42;12.30;99.90
16732;DHT22;8484;50.904;9.192;2023-05-10T05:03:09;12.20;99.90
16732;DHT22;8484;50.904;9.192;2023-05-10T05:05:36;12.20;99.90
16732;DHT22;8484;50.904;9.192;2023-05-10T05:08:05;12.20;99.90
16732;DHT22;8484;50.904;9.192;2023-05-10T05:10:32;12.30;99.90
16732;DHT22;8484;50.904;9.192;2023-05-10T05:12:59;12.20;99.90
16732;DHT22;8484;50.904;9.192;2023-05-10T05:15:26;12.20;99.90
16732;DHT22;8484;50.904;9.192;2023-05-10T05:17:53;12.30;99.90
16732;DHT22;8484;50.904;9.192;2023-05-10T05:20:20;12.30;99.90
16732;DHT22;8484;50.904;9.192;2023-05-10T05:22:47;12.40;99.90
16732;DHT22;8484;50.904;9.192;2023-05-10T05:25:15;12.40;99.90
16732;DHT22;8484;50.904;9.192;2023-05-10T05:27:42;12.30;99.90
16732;DHT22;8484;50.904;9.192;2023-05-10T05:30:10;12.30;99.90
16732;DHT22;8484;50.904;9.192;2023-05-10T05:32:36;12.30;99.90
16732;DHT22;8484;50.904;9.192;2023-05-10T05:35:04;12.40;99.90
16732;DHT22;8484;50.904;9.192;2023-05-10T05:37:31;12.40;99.90
16732;DHT22;8484;50.904;9.192;2023-05-10T05:39:58;12.40;99.90
16732;DHT22;8484;50.904;9.192;2023-05-10T05:42:28;12.50;99.90
16732;DHT22;8484;50.904;9.192;2023-05-10T05:44:55;12.40;99.90
16732;DHT22;8484;50.904;9.192;2023-05-10T05:47:21;12.60;99.90
16732;DHT22;8484;50.904;9.192;2023-05-10T05:49:48;12.50;99.90
16732;DHT22;8484;50.904;9.192;2023-05-10T05:52:15;12.50;99.90
16732;DHT22;8484;50.904;9.192;2023-05-10T05:54:42;12.50;99.90
16732;DHT22;8484;50.904;9.192;2023-05-10T05:57:09;12.50;99.90
16732;DHT22;8484;50.904;9.192;2023-05-10T05:59:37;12.50;99.90
16732;DHT22;8484;50.904;9.192;2023-05-10T06:02:07;12.60;99.90
16732;DHT22;8484;50.904;9.192;2023-05-10T06:04:34;12.60;99.90
16732;DHT22;8484;50.904;9.192;2023-05-10T06:07:01;12.70;99.90
16732;DHT22;8484;50.904;9.192;2023-05-10T06:09:28;12.80;99.90
16732;DHT22;8484;50.904;9.192;2023-05-10T06:11:55;12.90;99.90
16732;DHT22;8484;50.904;9.192;2023-05-10T06:14:22;12.90;99.90
16732;DHT22;8484;50.904;9.192;2023-05-10T06:16:50;13.10;99.90
16732;DHT22;8484;50.904;9.192;2023-05-10T06:19:17;13.00;99.90
16732;DHT22;8484;50.904;9.192;2023-05-10T06:21:44;12.90;99.90
16732;DHT22;8484;50.904;9.192;2023-05-10T06:24:10;12.90;99.90
16732;DHT22;8484;50.904;9.192;2023-05-10T06:26:38;13.00;99.90
16732;DHT22;8484;50.904;9.192;2023-05-10T06:29:05;13.10;99.90
16732;DHT22;8484;50.904;9.192;2023-05-10T06:31:32;13.00;99.90
16732;DHT22;8484;50.904;9.192;2023-05-10T06:34:00;13.00;99.90
16732;DHT22;8484;50.904;9.192;2023-05-10T06:36:27;13.20;99.90
16732;DHT22;8484;50.904;9.192;2023-05-10T06:38:54;13.30;99.90
16732;DHT22;8484;50.904;9.192;2023-05-10T06:41:21;13.50;99.90
16732;DHT22;8484;50.904;9.192;2023-05-10T06:43:49;13.50;99.90
16732;DHT22;8484;50.904;9.192;2023-05-10T06:46:16;13.40;99.90
16732;DHT22;8484;50.904;9.192;2023-05-10T06:48:43;13.30;99.90
16732;DHT22;8484;50.904;9.192;2023-05-10T06:51:11;13.20;99.90
16732;DHT22;8484;50.904;9.192;2023-05-10T06:53:38;13.20;99.90
16732;DHT22;8484;50.904;9.192;2023-05-10T06:56:05;13.40;99.90
16732;DHT22;8484;50.904;9.192;2023-05-10T06:58:32;13.30;99.90
16732;DHT22;8484;50.904;9.192;2023-05-10T07:01:03;13.20;99.90
16732;DHT22;8484;50.904;9.192;2023-05-10T07:03:30;13.40;99.90
16732;DHT22;8484;50.904;9.192;2023-05-10T07:06:03;13.40;99.90
16732;DHT22;8484;50.904;9.192;2023-05-10T07:08:34;13.40;99.90
16732;DHT22;8484;50.904;9.192;2023-05-10T07:11:02;13.60;99.90
16732;DHT22;8484;50.904;9.192;2023-05-10T07:13:29;13.40;99.90
16732;DHT22;8484;50.904;9.192;2023-05-10T07:15:57;13.50;99.90
16732;DHT22;8484;50.904;9.192;2023-05-10T07:18:24;13.30;99.90
16732;DHT22;8484;50.904;9.192;2023-05-10T07:20:50;13.30;99.90
16732;DHT22;8484;50.904;9.192;2023-05-10T07:23:17;13.30;99.90
16732;DHT22;8484;50.904;9.192;2023-05-10T07:25:46;13.20;99.90
16732;DHT22;8484;50.904;9.192;2023-05-10T07:28:14;13.30;99.90
16732;DHT22;8484;50.904;9.192;2023-05-10T07:30:42;13.30;99.90
16732;DHT22;8484;50.904;9.192;2023-05-10T07:33:10;13.30;99.90
16732;DHT22;8484;50.904;9.192;2023-05-10T07:35:37;13.40;99.90
16732;DHT22;8484;50.904;9.192;2023-05-10T07:38:04;13.40;99.90
16732;DHT22;8484;50.904;9.192;2023-05-10T07:40:31;13.40;99.90
16732;DHT22;8484;50.904;9.192;2023-05-10T07:42:59;13.30;99.90
16732;DHT22;8484;50.904;9.192;2023-05-10T07:45:27;13.30;99.90
16732;DHT22;8484;50.904;9.192;2023-05-10T07:47:54;13.20;99.90
16732;DHT22;8484;50.904;9.192;2023-05-10T07:50:21;13.40;99.90
16732;DHT22;8484;50.904;9.192;2023-05-10T07:52:48;13.40;99.90
16732;DHT22;8484;50.904;9.192;2023-05-10T07:55:15;13.50;99.90
16732;DHT22;8484;50.904;9.192;2023-05-10T07:57:42;13.60;99.90
16732;DHT22;8484;50.904;9.192;2023-05-10T08:00:12;13.70;99.90
16732;DHT22;8484;50.904;9.192;2023-05-10T08:02:40;13.70;99.90
16732;DHT22;8484;50.904;9.192;2023-05-10T08:05:07;13.60;99.90
16732;DHT22;8484;50.904;9.192;2023-05-10T08:07:35;14.00;99.90
16732;DHT22;8484;50.904;9.192;2023-05-10T08:10:02;14.10;99.90
16732;DHT22;8484;50.904;9.192;2023-05-10T08:12:29;14.30;99.90
16732;DHT22;8484;50.904;9.192;2023-05-10T08:14:56;14.50;99.90
16732;DHT22;8484;50.904;9.192;2023-05-10T08:17:25;14.60;99.90
16732;DHT22;8484;50.904;9.192;2023-05-10T08:19:52;14.60;99.90
16732;DHT22;8484;50.904;9.192;2023-05-10T08:22:19;14.60;99.90
16732;DHT22;8484;50.904;9.192;2023-05-10T08:24:46;14.40;99.90
16732;DHT22;8484;50.904;9.192;2023-05-10T08:27:13;14.80;99.90
16732;DHT22;8484;50.904;9.192;2023-05-10T08:29:40;14.60;99.90
16732;DHT22;8484;50.904;9.192;2023-05-10T08:32:07;15.00;99.90
16732;DHT22;8484;50.904;9.192;2023-05-10T08:34:35;15.10;99.90
16732;DHT22;8484;50.904;9.192;2023-05-10T08:37:03;15.50;99.90
16732;DHT22;8484;50.904;9.192;2023-05-10T08:39:33;15.20;99.90
16732;DHT22;8484;50.904;9.192;2023-05-10T08:42:02;15.10;99.90
16732;DHT22;8484;50.904;9.192;2023-05-10T08:44:32;15.50;99.90
16732;DHT22;8484;50.904;9.192;2023-05-10T08:47:04;15.20;99.90
16732;DHT22;8484;50.904;9.192;2023-05-10T08:49:31;14.90;99.90
16732;DHT22;8484;50.904;9.192;2023-05-10T08:52:03;15.40;99.90
16732;DHT22;8484;50.904;9.192;2023-05-10T08:54:32;15.30;99.90
16732;DHT22;8484;50.904;9.192;2023-05-10T08:56:59;15.20;99.90
16732;DHT22;8484;50.904;9.192;2023-05-10T08:59:32;15.20;99.90
16732;DHT22;8484;50.904;9.192;2023-05-10T09:01:59;15.70;99.90
16732;DHT22;8484;50.904;9.192;2023-05-10T09:04:31;15.70;99.90
16732;DHT22;8484;50.904;9.192;2023-05-10T09:06:57;16.00;99.90
16732;DHT22;8484;50.904;9.192;2023-05-10T09:09:27;16.10;99.90
16732;DHT22;8484;50.904;9.192;2023-05-10T09:11:56;16.10;99.90
16732;DHT22;8484;50.904;9.192;2023-05-10T09:14:24;16.70;99.90
16732;DHT22;8484;50.904;9.192;2023-05-10T09:16:51;16.90;99.90
16732;DHT22;8484;50.904;9.192;2023-05-10T09:19:21;16.80;99.90
16732;DHT22;8484;50.904;9.192;2023-05-10T09:21:49;17.00;99.90
16732;DHT22;8484;50.904;9.192;2023-05-10T09:24:16;17.00;99.90
16732;DHT22;8484;50.904;9.192;2023-05-10T09:26:47;17.30;99.90
16732;DHT22;8484;50.904;9.192;2023-05-10T09:29:15;17.20;99.90
16732;DHT22;8484;50.904;9.192;2023-05-10T09:31:46;17.20;99.90
16732;DHT22;8484;50.904;9.192;2023-05-10T09:34:18;17.10;99.90
16732;DHT22;8484;50.904;9.192;2023-05-10T09:36:54;16.80;99.90
16732;DHT22;8484;50.904;9.192;2023-05-10T09:39:30;16.60;99.90
16732;DHT22;8484;50.904;9.192;2023-05-10T09:41:59;16.60;99.90
16732;DHT22;8484;50.904;9.192;2023-05-10T09:44:29;16.30;99.90
16732;DHT22;8484;50.904;9.192;2023-05-10T09:46:56;16.70;99.90
16732;DHT22;8484;50.904;9.192;2023-05-10T09:49:23;16.80;99.90
16732;DHT22;8484;50.904;9.192;2023-05-10T09:52:01;16.90;99.90
16732;DHT22;8484;50.904;9.192;2023-05-10T09:54:29;16.80;99.90
16732;DHT22;8484;50.904;9.192;2023-05-10T09:56:56;17.30;99.90
16732;DHT22;8484;50.904;9.192;2023-05-10T09:59:27;17.70;99.90
16732;DHT22;8484;50.904;9.192;2023-05-10T10:01:56;17.70;99.90
16732;DHT22;8484;50.904;9.192;2023-05-10T10:04:24;17.50;99.90
16732;DHT22;8484;50.904;9.192;2023-05-10T10:07:04;17.40;99.90
16732;DHT22;8484;50.904;9.192;2023-05-10T10:09:32;17.80;99.90
16732;DHT22;8484;50.904;9.192;2023-05-10T10:12:01;18.00;99.90
16732;DHT22;8484;50.904;9.192;2023-05-10T10:14:30;17.90;99.90
16732;DHT22;8484;50.904;9.192;2023-05-10T10:17:00;17.80;99.90
16732;DHT22;8484;50.904;9.192;2023-05-10T10:19:28;18.30;99.90
16732;DHT22;8484;50.904;9.192;2023-05-10T10:21:55;19.30;99.90
16732;DHT22;8484;50.904;9.192;2023-05-10T10:24:23;19.60;99.90
16732;DHT22;8484;50.904;9.192;2023-05-10T10:26:52;19.60;99.90
16732;DHT22;8484;50.904;9.192;2023-05-10T10:29:24;19.80;99.90
16732;DHT22;8484;50.904;9.192;2023-05-10T10:32:03;20.00;99.90
16732;DHT22;8484;50.904;9.192;2023-05-10T10:34:36;19.70;99.90
16732;DHT22;8484;50.904;9.192;2023-05-10T10:37:06;19.90;99.90
16732;DHT22;8484;50.904;9.192;2023-05-10T10:39:33;20.20;99.90
16732;DHT22;8484;50.904;9.192;2023-05-10T10:42:03;20.10;99.90
16732;DHT22;8484;50.904;9.192;2023-05-10T10:44:35;19.10;99.90
16732;DHT22;8484;50.904;9.192;2023-05-10T10:47:21;18.60;99.90
16732;DHT22;8484;50.904;9.192;2023-05-10T10:49:51;17.90;99.90
16732;DHT22;8484;50.904;9.192;2023-05-10T10:52:23;17.00;99.90
16732;DHT22;8484;50.904;9.192;2023-05-10T10:54:57;16.80;99.90
16732;DHT22;8484;50.904;9.192;2023-05-10T10:57:24;16.80;99.90
16732;DHT22;8484;50.904;9.192;2023-05-10T11:02:45;17.00;99.90
16732;DHT22;8484;50.904;9.192;2023-05-10T11:05:40;17.10;99.90
16732;DHT22;8484;50.904;9.192;2023-05-10T11:08:19;17.20;99.90
16732;DHT22;8484;50.904;9.192;2023-05-10T11:11:08;16.90;99.90
16732;DHT22;8484;50.904;9.192;2023-05-10T11:13:39;16.80;99.90
16732;DHT22;8484;50.904;9.192;2023-05-10T11:16:14;16.50;99.90
16732;DHT22;8484;50.904;9.192;2023-05-10T11:18:57;16.50;99.90
16732;DHT22;8484;50.904;9.192;2023-05-10T11:21:24;16.70;99.90
16732;DHT22;8484;50.904;9.192;2023-05-10T11:23:52;16.40;99.90
16732;DHT22;8484;50.904;9.192;2023-05-10T11:26:21;16.50;99.90
16732;DHT22;8484;50.904;9.192;2023-05-10T11:28:51;16.60;99.90
16732;DHT22;8484;50.904;9.192;2023-05-10T11:31:19;16.00;99.90
16732;DHT22;8484;50.904;9.192;2023-05-10T11:33:48;16.50;99.90
16732;DHT22;8484;50.904;9.192;2023-05-10T11:36:18;16.50;99.90
16732;DHT22;8484;50.904;9.192;2023-05-10T11:38:46;16.30;99.90
16732;DHT22;8484;50.904;9.192;2023-05-10T11:41:19;16.40;99.90
16732;DHT22;8484;50.904;9.192;2023-05-10T11:43:49;16.20;99.90
16732;DHT22;8484;50.904;9.192;2023-05-10T11:46:19;15.70;99.90
16732;DHT22;8484;50.904;9.192;2023-05-10T11:48:48;15.90;99.90
16732;DHT22;8484;50.904;9.192;2023-05-10T11:51:20;16.20;99.90
16732;DHT22;8484;50.904;9.192;2023-05-10T11:53:47;16.20;99.90
16732;DHT22;8484;50.904;9.192;2023-05-10T11:56:14;16.30;99.90
16732;DHT22;8484;50.904;9.192;2023-05-10T11:58:41;16.60;99.90
16732;DHT22;8484;50.904;9.192;2023-05-10T12:01:09;16.70;99.90
16732;DHT22;8484;50.904;9.192;2023-05-10T12:03:36;17.30;99.90
16732;DHT22;8484;50.904;9.192;2023-05-10T12:06:04;17.60;99.90
16732;DHT22;8484;50.904;9.192;2023-05-10T12:08:32;17.50;99.90
16732;DHT22;8484;50.904;9.192;2023-05-10T12:11:07;17.70;99.90
16732;DHT22;8484;50.904;9.192;2023-05-10T12:13:38;17.80;99.90
16732;DHT22;8484;50.904;9.192;2023-05-10T12:16:16;17.70;99.90
16732;DHT22;8484;50.904;9.192;2023-05-10T12:18:43;17.80;99.90
16732;DHT22;8484;50.904;9.192;2023-05-10T12:21:11;18.50;99.90
16732;DHT22;8484;50.904;9.192;2023-05-10T12:23:39;18.60;99.90
16732;DHT22;8484;50.904;9.192;2023-05-10T12:26:09;19.30;99.90
16732;DHT22;8484;50.904;9.192;2023-05-10T12:28:39;19.10;99.90
16732;DHT22;8484;50.904;9.192;2023-05-10T12:31:07;18.70;99.90
16732;DHT22;8484;50.904;9.192;2023-05-10T12:33:38;18.60;99.90
16732;DHT22;8484;50.904;9.192;2023-05-10T12:36:07;18.30;99.90
16732;DHT22;8484;50.904;9.192;2023-05-10T12:38:43;18.10;99.90
16732;DHT22;8484;50.904;9.192;2023-05-10T12:41:14;18.60;99.90
16732;DHT22;8484;50.904;9.192;2023-05-10T12:43:41;18.00;99.90
16732;DHT22;8484;50.904;9.192;2023-05-10T12:46:09;17.40;99.90
16732;DHT22;8484;50.904;9.192;2023-05-10T12:48:37;17.20;99.90
16732;DHT22;8484;50.904;9.192;2023-05-10T12:51:05;16.80;99.90
16732;DHT22;8484;50.904;9.192;2023-05-10T12:53:34;17.20;99.90
16732;DHT22;8484;50.904;9.192;2023-05-10T12:56:03;17.20;99.90
16732;DHT22;8484;50.904;9.192;2023-05-10T12:58:30;17.30;99.90
16732;DHT22;8484;50.904;9.192;2023-05-10T13:00:57;17.10;99.90
16732;DHT22;8484;50.904;9.192;2023-05-10T13:03:25;17.00;99.90
16732;DHT22;8484;50.904;9.192;2023-05-10T13:05:53;16.90;99.90
16732;DHT22;8484;50.904;9.192;2023-05-10T13:08:20;16.90;99.90
16732;DHT22;8484;50.904;9.192;2023-05-10T13:10:47;17.10;99.90
16732;DHT22;8484;50.904;9.192;2023-05-10T13:13:15;17.60;99.90
16732;DHT22;8484;50.904;9.192;2023-05-10T13:15:43;17.50;99.90
16732;DHT22;8484;50.904;9.192;2023-05-10T13:18:10;17.10;99.90
16732;DHT22;8484;50.904;9.192;2023-05-10T13:20:37;17.00;99.90
16732;DHT22;8484;50.904;9.192;2023-05-10T13:23:04;17.30;99.90
16732;DHT22;8484;50.904;9.192;2023-05-10T13:25:31;17.20;99.90
16732;DHT22;8484;50.904;9.192;2023-05-10T13:27:59;16.70;99.90
16732;DHT22;8484;50.904;9.192;2023-05-10T13:30:28;16.70;99.90
16732;DHT22;8484;50.904;9.192;2023-05-10T13:32:55;16.90;99.90
16732;DHT22;8484;50.904;9.192;2023-05-10T13:35:22;16.70;99.90
16732;DHT22;8484;50.904;9.192;2023-05-10T13:37:49;16.50;99.90
16732;DHT22;8484;50.904;9.192;2023-05-10T13:40:16;16.60;99.90
16732;DHT22;8484;50.904;9.192;2023-05-10T13:42:42;17.00;99.90
16732;DHT22;8484;50.904;9.192;2023-05-10T13:45:10;17.50;99.90
16732;DHT22;8484;50.904;9.192;2023-05-10T13:47:51;17.60;99.90
16732;DHT22;8484;50.904;9.192;2023-05-10T13:50:18;18.10;99.90
16732;DHT22;8484;50.904;9.192;2023-05-10T13:52:47;18.20;99.90
16732;DHT22;8484;50.904;9.192;2023-05-10T13:59:10;17.00;99.90
16732;DHT22;8484;50.904;9.192;2023-05-10T14:01:48;17.40;99.90
16732;DHT22;8484;50.904;9.192;2023-05-10T14:04:31;17.10;99.90
16732;DHT22;8484;50.904;9.192;2023-05-10T14:07:14;17.20;99.90
16732;DHT22;8484;50.904;9.192;2023-05-10T14:12:57;17.00;99.90
16732;DHT22;8484;50.904;9.192;2023-05-10T14:15:31;16.80;99.90
16732;DHT22;8484;50.904;9.192;2023-05-10T14:17:58;17.00;99.90
16732;DHT22;8484;50.904;9.192;2023-05-10T14:20:27;16.70;99.90
16732;DHT22;8484;50.904;9.192;2023-05-10T14:22:54;16.70;99.90
16732;DHT22;8484;50.904;9.192;2023-05-10T14:25:24;16.80;99.90
16732;DHT22;8484;50.904;9.192;2023-05-10T14:27:51;16.70;99.90
16732;DHT22;8484;50.904;9.192;2023-05-10T14:30:22;17.10;99.90
16732;DHT22;8484;50.904;9.192;2023-05-10T14:32:53;16.90;99.90
16732;DHT22;8484;50.904;9.192;2023-05-10T14:35:20;16.70;99.90
16732;DHT22;8484;50.904;9.192;2023-05-10T14:37:49;16.40;99.90
16732;DHT22;8484;50.904;9.192;2023-05-10T14:40:16;16.40;99.90
16732;DHT22;8484;50.904;9.192;2023-05-10T14:42:43;16.40;99.90
16732;DHT22;8484;50.904;9.192;2023-05-10T14:45:10;16.30;99.90
16732;DHT22;8484;50.904;9.192;2023-05-10T14:47:37;16.30;99.90
16732;DHT22;8484;50.904;9.192;2023-05-10T14:50:06;16.40;99.90
16732;DHT22;8484;50.904;9.192;2023-05-10T14:55:53;16.10;99.90
16732;DHT22;8484;50.904;9.192;2023-05-10T14:58:20;16.00;99.90
16732;DHT22;8484;50.904;9.192;2023-05-10T15:00:47;16.00;99.90
16732;DHT22;8484;50.904;9.192;2023-05-10T15:03:17;16.30;99.90
16732;DHT22;8484;50.904;9.192;2023-05-10T15:05:44;16.10;99.90
16732;DHT22;8484;50.904;9.192;2023-05-10T15:08:11;16.00;99.90
16732;DHT22;8484;50.904;9.192;2023-05-10T15:10:38;16.30;99.90
16732;DHT22;8484;50.904;9.192;2023-05-10T15:13:06;16.30;99.90
16732;DHT22;8484;50.904;9.192;2023-05-10T15:15:33;16.10;99.90
16732;DHT22;8484;50.904;9.192;2023-05-10T15:18:06;16.20;99.90
16732;DHT22;8484;50.904;9.192;2023-05-10T15:20:34;16.30;99.90
16732;DHT22;8484;50.904;9.192;2023-05-10T15:23:01;16.30;99.90
16732;DHT22;8484;50.904;9.192;2023-05-10T15:25:28;16.30;99.90
16732;DHT22;8484;50.904;9.192;2023-05-10T15:27:55;16.20;99.90
16732;DHT22;8484;50.904;9.192;2023-05-10T15:30:24;16.30;99.90
16732;DHT22;8484;50.904;9.192;2023-05-10T15:32:51;16.10;99.90
16732;DHT22;8484;50.904;9.192;2023-05-10T15:35:18;16.20;99.90
16732;DHT22;8484;50.904;9.192;2023-05-10T15:37:47;16.30;99.90
16732;DHT22;8484;50.904;9.192;2023-05-10T15:40:16;16.30;99.90
16732;DHT22;8484;50.904;9.192;2023-05-10T15:42:46;16.40;99.90
16732;DHT22;8484;50.904;9.192;2023-05-10T15:45:15;16.40;99.90
16732;DHT22;8484;50.904;9.192;2023-05-10T15:47:44;16.10;99.90
16732;DHT22;8484;50.904;9.192;2023-05-10T15:50:11;16.00;99.90
16732;DHT22;8484;50.904;9.192;2023-05-10T15:52:39;16.40;99.90
16732;DHT22;8484;50.904;9.192;2023-05-10T15:55:08;16.60;99.90
16732;DHT22;8484;50.904;9.192;2023-05-10T15:57:37;16.70;99.90
16732;DHT22;8484;50.904;9.192;2023-05-10T16:00:06;16.80;99.90
16732;DHT22;8484;50.904;9.192;2023-05-10T16:02:33;16.60;99.90
16732;DHT22;8484;50.904;9.192;2023-05-10T16:05:01;16.60;99.90
16732;DHT22;8484;50.904;9.192;2023-05-10T16:07:28;16.60;99.90
16732;DHT22;8484;50.904;9.192;2023-05-10T16:09:56;16.30;99.90